createdAt,value
2022-11-07T00:01:56.167Z,84.32
2022-11-07T00:06:55.009Z,84.11
2022-11-07T00:11:55.113Z,83.84
2022-11-07T00:16:54.912Z,83.84
2022-11-07T00:21:54.788Z,83.79
2022-11-07T00:26:54.874Z,83.73
2022-11-07T00:31:54.845Z,83.63
2022-11-07T00:36:54.825Z,83.60
2022-11-07T00:41:54.870Z,83.65
2022-11-07T00:46:54.867Z,83.44
2022-11-07T00:51:54.866Z,83.42
2022-11-07T00:56:54.860Z,83.20
2022-11-07T01:01:56.262Z,83.38
2022-11-07T01:06:54.901Z,83.42
2022-11-07T01:11:54.916Z,83.87
2022-11-07T01:16:54.921Z,83.85
2022-11-07T01:21:54.960Z,83.96
2022-11-07T01:26:55.045Z,83.77
2022-11-07T01:31:54.978Z,83.77
2022-11-07T01:36:54.945Z,83.75
2022-11-07T01:41:55.212Z,84.31
2022-11-07T01:46:58.130Z,84.25
2022-11-07T01:52:00.899Z,84.38
2022-11-07T01:56:58.070Z,84.51
2022-11-07T02:01:55.575Z,84.42
2022-11-07T02:07:09.658Z,85.06
2022-11-07T02:11:55.057Z,84.79
2022-11-07T02:16:55.296Z,84.83
2022-11-07T02:22:03.471Z,84.92
2022-11-07T02:26:57.395Z,84.79
2022-11-07T02:32:05.516Z,84.99
2022-11-07T02:36:56.080Z,85.07
2022-11-07T02:41:58.337Z,85.10
2022-11-07T02:46:56.136Z,85.13
2022-11-07T02:51:55.166Z,85.25
2022-11-07T02:56:55.123Z,85.36
2022-11-07T03:01:55.817Z,85.01
2022-11-07T03:06:55.150Z,85.42
2022-11-07T03:11:55.167Z,85.27
2022-11-07T03:16:55.270Z,85.43
2022-11-07T03:21:55.231Z,85.46
2022-11-07T03:26:55.203Z,85.25
2022-11-07T03:31:55.305Z,85.12
2022-11-07T03:36:55.236Z,85.22
2022-11-07T03:41:55.237Z,85.28
2022-11-07T03:46:55.333Z,85.23
2022-11-07T03:51:55.282Z,85.25
2022-11-07T03:56:55.312Z,85.10
2022-11-07T04:01:56.366Z,85.06
2022-11-07T04:06:55.301Z,85.04
2022-11-07T04:11:55.342Z,85.08
2022-11-07T04:16:55.318Z,84.76
2022-11-07T04:21:55.342Z,84.72
2022-11-07T04:26:55.350Z,84.41
2022-11-07T04:31:55.354Z,84.48
2022-11-07T04:36:55.363Z,84.40
2022-11-07T04:41:55.359Z,84.70
2022-11-07T04:46:55.391Z,84.69
2022-11-07T04:51:55.754Z,84.81
2022-11-07T04:56:55.413Z,84.86
2022-11-07T05:01:56.790Z,84.65
2022-11-07T05:06:55.430Z,84.87
2022-11-07T05:11:55.766Z,84.70
2022-11-07T05:16:55.967Z,84.62
2022-11-07T05:21:55.503Z,84.56
2022-11-07T05:26:55.490Z,84.35
2022-11-07T05:31:55.494Z,84.13
2022-11-07T05:36:55.510Z,84.04
2022-11-07T05:41:55.511Z,83.87
2022-11-07T05:46:56.695Z,83.59
2022-11-07T05:51:56.470Z,83.23
2022-11-07T05:56:55.704Z,83.03
2022-11-07T06:01:56.173Z,83.06
2022-11-07T06:06:55.558Z,83.04
2022-11-07T06:11:55.579Z,83.07
2022-11-07T06:16:55.596Z,83.14
2022-11-07T06:21:55.589Z,83.20
2022-11-07T06:26:55.645Z,83.23
2022-11-07T06:31:55.693Z,83.36
2022-11-07T06:37:02.500Z,83.31
2022-11-07T06:41:55.637Z,83.69
2022-11-07T06:46:55.668Z,83.41
2022-11-07T06:51:55.690Z,83.29
2022-11-07T06:56:55.673Z,83.31
2022-11-07T07:01:57.392Z,83.08
2022-11-07T07:06:55.692Z,83.61
2022-11-07T07:11:55.766Z,84.00
2022-11-07T07:16:55.764Z,83.99
2022-11-07T07:21:55.728Z,83.70
2022-11-07T07:26:55.744Z,83.47
2022-11-07T07:31:55.768Z,83.32
2022-11-07T07:36:55.761Z,83.67
2022-11-07T07:41:55.919Z,83.51
2022-11-07T07:46:55.800Z,83.24
2022-11-07T07:51:55.790Z,83.20
2022-11-07T07:56:55.849Z,83.02
2022-11-07T08:01:57.599Z,83.07
2022-11-07T08:06:55.819Z,83.21
2022-11-07T08:11:56.015Z,82.93
2022-11-07T08:16:56.401Z,82.85
2022-11-07T08:21:55.893Z,82.69
2022-11-07T08:26:55.885Z,82.38
2022-11-07T08:31:56.765Z,81.51
2022-11-07T08:36:55.934Z,81.39
2022-11-07T08:41:56.012Z,81.49
2022-11-07T08:46:57.061Z,81.81
2022-11-07T08:51:55.929Z,81.56
2022-11-07T08:56:55.946Z,81.47
2022-11-07T09:02:36.984Z,81.10
2022-11-07T09:06:56.064Z,81.32
2022-11-07T09:11:56.024Z,81.16
2022-11-07T09:16:57.055Z,80.90
2022-11-07T09:21:56.524Z,80.86
2022-11-07T09:26:56.081Z,80.83
2022-11-07T09:31:56.034Z,80.50
2022-11-07T09:36:56.022Z,80.42
2022-11-07T09:42:15.967Z,80.54
2022-11-07T09:47:00.332Z,81.43
2022-11-07T09:52:04.950Z,81.65
2022-11-07T09:56:58.188Z,81.42
2022-11-07T10:01:57.755Z,81.26
2022-11-07T10:07:05.069Z,81.09
2022-11-07T10:12:11.033Z,80.98
2022-11-07T10:17:07.165Z,80.98
2022-11-07T10:22:10.482Z,80.66
2022-11-07T10:26:56.508Z,79.82
2022-11-07T10:32:04.153Z,79.59
2022-11-07T10:36:56.193Z,79.47
2022-11-07T10:42:07.987Z,78.83
2022-11-07T10:46:56.556Z,78.68
2022-11-07T10:52:07.981Z,77.65
2022-11-07T10:57:01.184Z,77.46
2022-11-07T11:01:58.497Z,77.89
2022-11-07T11:07:02.322Z,77.99
2022-11-07T11:11:56.513Z,77.95
2022-11-07T11:16:56.508Z,77.99
2022-11-07T11:21:57.554Z,77.95
2022-11-07T11:27:00.044Z,77.60
2022-11-07T11:31:59.974Z,77.66
2022-11-07T11:37:05.221Z,77.40
2022-11-07T11:41:57.996Z,77.07
2022-11-07T11:47:09.527Z,76.51
2022-11-07T11:52:12.179Z,76.29
2022-11-07T11:57:02.188Z,75.83
2022-11-07T12:02:09.655Z,76.22
2022-11-07T12:07:09.598Z,75.84
2022-11-07T12:12:03.932Z,76.00
2022-11-07T12:17:05.034Z,74.68
2022-11-07T12:21:57.438Z,74.17
2022-11-07T12:27:04.828Z,74.24
2022-11-07T12:32:16.334Z,74.58
2022-11-07T12:37:14.942Z,73.25
2022-11-07T12:42:04.670Z,73.58
2022-11-07T12:46:58.814Z,74.14
2022-11-07T12:52:15.695Z,73.57
2022-11-07T12:56:57.370Z,72.52
2022-11-07T13:02:06.515Z,73.25
2022-11-07T13:07:05.193Z,72.67
2022-11-07T13:12:10.166Z,73.40
2022-11-07T13:16:57.537Z,73.53
2022-11-07T13:21:59.144Z,74.24
2022-11-07T13:26:57.427Z,74.12
2022-11-07T13:32:06.495Z,74.37
2022-11-07T13:37:01.355Z,74.38
2022-11-07T13:41:59.235Z,74.37
2022-11-07T13:47:01.045Z,74.32
2022-11-07T13:52:02.893Z,73.90
2022-11-07T13:57:13.741Z,74.21
2022-11-07T14:01:58.183Z,74.60
2022-11-07T14:06:59.993Z,74.49
2022-11-07T14:11:56.918Z,74.81
2022-11-07T14:17:00.468Z,74.71
2022-11-07T14:21:56.688Z,74.63
2022-11-07T14:26:58.344Z,75.01
2022-11-07T14:32:00.118Z,75.14
2022-11-07T14:36:58.989Z,75.42
2022-11-07T14:41:59.193Z,75.64
2022-11-07T14:46:57.727Z,75.69
2022-11-07T14:51:56.974Z,76.12
2022-11-07T14:56:58.066Z,76.68
2022-11-07T15:02:03.499Z,76.82
2022-11-07T15:07:09.365Z,76.93
2022-11-07T15:11:59.173Z,77.57
2022-11-07T15:16:57.270Z,77.46
2022-11-07T15:22:00.216Z,78.10
2022-11-07T15:27:01.686Z,78.74
2022-11-07T15:32:04.493Z,78.63
2022-11-07T15:36:56.879Z,79.44
2022-11-07T15:41:56.861Z,79.60
2022-11-07T15:46:56.959Z,80.12
2022-11-07T15:51:56.979Z,80.91
2022-11-07T15:57:00.330Z,80.99
2022-11-07T16:01:57.618Z,81.78
2022-11-07T16:06:57.100Z,81.51
2022-11-07T16:11:56.953Z,81.48
2022-11-07T16:16:56.962Z,81.04
2022-11-07T16:21:56.965Z,81.02
2022-11-07T16:26:57.003Z,81.42
2022-11-07T16:31:56.982Z,81.05
2022-11-07T16:36:56.996Z,80.72
2022-11-07T16:41:57.008Z,80.72
2022-11-07T16:46:57.060Z,80.45
2022-11-07T16:51:57.734Z,80.44
2022-11-07T16:56:57.113Z,80.27
2022-11-07T17:01:57.526Z,79.87
2022-11-07T17:06:57.056Z,79.81
2022-11-07T17:11:57.070Z,79.52
2022-11-07T17:16:57.083Z,79.17
2022-11-07T17:21:57.357Z,78.91
2022-11-07T17:26:58.043Z,78.59
2022-11-07T17:31:57.134Z,78.64
2022-11-07T17:36:57.143Z,78.37
2022-11-07T17:41:57.135Z,78.16
2022-11-07T17:46:57.148Z,77.85
2022-11-07T17:51:57.154Z,77.79
2022-11-07T17:56:57.965Z,77.97
2022-11-07T18:01:58.707Z,77.69
2022-11-07T18:06:57.242Z,77.61
2022-11-07T18:11:57.222Z,77.67
2022-11-07T18:16:57.259Z,77.62
2022-11-07T18:21:57.258Z,77.66
2022-11-07T18:26:57.228Z,77.73
2022-11-07T18:31:57.249Z,77.88
2022-11-07T18:36:57.346Z,78.02
2022-11-07T18:41:57.285Z,78.34
2022-11-07T18:46:57.290Z,78.50
2022-11-07T18:51:57.323Z,78.52
2022-11-07T18:56:57.303Z,78.89
2022-11-07T19:01:57.889Z,79.00
2022-11-07T19:06:57.576Z,78.72
2022-11-07T19:11:58.555Z,78.70
2022-11-07T19:16:57.357Z,78.58
2022-11-07T19:21:57.361Z,78.79
2022-11-07T19:26:57.350Z,78.54
2022-11-07T19:31:57.410Z,78.54
2022-11-07T19:36:58.010Z,78.52
2022-11-07T19:41:57.390Z,78.90
2022-11-07T19:46:57.415Z,78.89
2022-11-07T19:51:57.429Z,79.14
2022-11-07T19:56:57.867Z,79.08
2022-11-07T20:02:25.766Z,79.17
2022-11-07T20:06:57.458Z,79.54
2022-11-07T20:11:57.478Z,79.45
2022-11-07T20:16:57.872Z,79.78
2022-11-07T20:21:57.483Z,79.66
2022-11-07T20:26:57.485Z,79.71
2022-11-07T20:31:57.515Z,79.52
2022-11-07T20:36:57.608Z,79.10
2022-11-07T20:41:57.532Z,78.99
2022-11-07T20:46:57.567Z,78.99
2022-11-07T20:51:57.572Z,78.99
2022-11-07T20:56:57.594Z,78.96
2022-11-07T21:02:03.120Z,78.85
2022-11-07T21:06:57.592Z,78.79
2022-11-07T21:11:57.583Z,78.54
2022-11-07T21:16:57.623Z,78.42
2022-11-07T21:21:57.624Z,78.25
2022-11-07T21:26:57.985Z,78.33
2022-11-07T21:31:57.729Z,77.98
2022-11-07T21:36:57.658Z,78.09
2022-11-07T21:41:57.692Z,77.78
2022-11-07T21:46:57.674Z,77.82
2022-11-07T21:51:57.677Z,77.89
2022-11-07T21:56:57.749Z,77.83
2022-11-07T22:01:58.479Z,77.96
2022-11-07T22:06:57.765Z,77.73
2022-11-07T22:11:57.760Z,77.70
2022-11-07T22:16:57.745Z,77.58
2022-11-07T22:21:57.753Z,77.52
2022-11-07T22:26:57.796Z,77.29
2022-11-07T22:31:59.581Z,77.29
2022-11-07T22:36:57.833Z,77.17
2022-11-07T22:41:57.802Z,77.30
2022-11-07T22:46:57.816Z,77.51
2022-11-07T22:51:57.829Z,77.73
2022-11-07T22:56:57.874Z,78.19
2022-11-07T23:01:59.386Z,78.62
2022-11-07T23:06:57.832Z,79.00
2022-11-07T23:11:57.902Z,79.39
2022-11-07T23:16:57.952Z,79.66
2022-11-07T23:21:57.889Z,79.80
2022-11-07T23:26:57.938Z,80.49
2022-11-07T23:31:57.915Z,80.16
2022-11-07T23:36:57.920Z,80.42
2022-11-07T23:41:57.938Z,80.85
2022-11-07T23:46:57.939Z,80.78
2022-11-07T23:51:58.053Z,81.19
2022-11-07T23:56:59.523Z,80.98
